Time;durP1;ratioP1;P1;durP2;ratioP2;P2;SDS_P1;SDS_P2;PMS_P1;PMS_P2;Temp;Humidity;BMP_temperature;BMP_pressure;BME280_temperature;BME280_humidity;BME280_pressure;Samples;Min_cycle;Max_cycle;Signal;HPM_P1;HPM_P2
2021/06/11 00:01:11;;;;;;;19.58;14.32;;;19.40;67.20;;;;;;5058185;28;20040;-74
2021/06/11 00:03:37;;;;;;;13.95;11.27;;;19.40;67.80;;;;;;5054283;28;20025;-73
2021/06/11 00:06:03;;;;;;;15.80;11.93;;;19.40;67.60;;;;;;5060157;28;20379;-74
2021/06/11 00:08:30;;;;;;;16.30;13.18;;;19.40;68.00;;;;;;5054746;28;20110;-74
2021/06/11 00:10:56;;;;;;;17.38;13.13;;;19.30;68.50;;;;;;5057229;28;20107;-74
2021/06/11 00:13:22;;;;;;;23.10;14.20;;;19.30;68.40;;;;;;5057443;28;20060;-74
2021/06/11 00:15:49;;;;;;;16.05;12.73;;;19.30;69.30;;;;;;5060766;28;20020;-74
2021/06/11 00:18:14;;;;;;;18.67;13.27;;;19.20;69.40;;;;;;5058832;28;20081;-74
2021/06/11 00:20:40;;;;;;;15.52;12.45;;;19.20;69.80;;;;;;5065090;28;20017;-74
2021/06/11 00:23:06;;;;;;;16.45;11.45;;;19.20;69.40;;;;;;5057552;28;20032;-74
2021/06/11 00:25:32;;;;;;;14.90;12.00;;;19.20;69.30;;;;;;5059992;28;20442;-74
2021/06/11 00:28:01;;;;;;;20.30;13.50;;;19.10;69.80;;;;;;5059446;28;20067;-73
2021/06/11 00:30:29;;;;;;;16.33;11.73;;;19.10;70.80;;;;;;5063014;28;20479;-73
2021/06/11 00:32:59;;;;;;;14.98;11.98;;;19.10;70.10;;;;;;5064610;28;20085;-74
2021/06/11 00:35:25;;;;;;;17.73;11.35;;;19.00;70.70;;;;;;5062128;28;20497;-74
2021/06/11 00:37:51;;;;;;;16.92;12.65;;;19.00;70.10;;;;;;5063399;28;20032;-74
2021/06/11 00:40:17;;;;;;;16.33;12.32;;;19.00;70.50;;;;;;5064976;28;20047;-74
2021/06/11 00:42:43;;;;;;;16.90;12.52;;;19.00;70.50;;;;;;5062740;28;20118;-74
2021/06/11 00:45:10;;;;;;;17.15;12.55;;;19.00;71.30;;;;;;5062533;28;20071;-74
2021/06/11 00:47:37;;;;;;;20.58;13.25;;;19.00;71.10;;;;;;5062885;28;20090;-74
2021/06/11 00:50:07;;;;;;;16.42;12.50;;;19.00;70.90;;;;;;5061834;28;20336;-73
2021/06/11 00:52:33;;;;;;;20.50;13.20;;;18.90;70.80;;;;;;5059774;28;20035;-74
2021/06/11 00:55:00;;;;;;;15.77;13.00;;;19.00;71.20;;;;;;5060958;28;20456;-74
2021/06/11 00:57:26;;;;;;;18.08;14.15;;;18.90;71.10;;;;;;5064794;28;20032;-73
2021/06/11 00:59:53;;;;;;;17.58;13.68;;;18.90;71.60;;;;;;5057638;28;20032;-74
2021/06/11 01:02:22;;;;;;;19.35;13.00;;;18.90;72.20;;;;;;5058024;28;20033;-73
2021/06/11 01:04:47;;;;;;;19.67;12.95;;;18.80;71.80;;;;;;5062669;28;20439;-74
2021/06/11 01:07:14;;;;;;;15.82;12.85;;;18.90;71.70;;;;;;5058460;28;20056;-74
2021/06/11 01:09:41;;;;;;;16.92;13.02;;;18.90;71.70;;;;;;5058399;28;20094;-74
2021/06/11 01:12:10;;;;;;;19.40;15.38;;;18.90;71.80;;;;;;5061947;28;20035;-74
2021/06/11 01:14:38;;;;;;;18.65;15.15;;;18.80;72.60;;;;;;5061195;28;20020;-74
2021/06/11 01:17:03;;;;;;;18.58;13.25;;;18.80;72.40;;;;;;5056721;28;20099;-73
2021/06/11 01:19:35;;;;;;;14.95;12.30;;;18.80;72.70;;;;;;5062643;28;20021;-74
2021/06/11 01:22:09;;;;;;;16.50;13.55;;;18.80;72.60;;;;;;5053690;28;20036;-74
2021/06/11 01:25:04;;;;;;;18.48;13.95;;;18.70;73.50;;;;;;5041748;28;20433;-74
2021/06/11 01:27:32;;;;;;;21.40;15.23;;;18.70;73.80;;;;;;5054043;28;20047;-74
2021/06/11 01:30:05;;;;;;;16.13;12.63;;;18.60;74.20;;;;;;5060778;28;20029;-74
2021/06/11 01:32:34;;;;;;;14.75;11.23;;;18.60;74.00;;;;;;5058604;28;20031;-74
2021/06/11 01:35:03;;;;;;;15.23;11.60;;;18.60;73.10;;;;;;5059339;28;20029;-73
2021/06/11 01:37:33;;;;;;;15.00;10.57;;;18.60;73.50;;;;;;5057972;28;20079;-73
2021/06/11 01:40:04;;;;;;;17.98;12.25;;;18.60;73.60;;;;;;5057870;28;20497;-74
2021/06/11 01:42:34;;;;;;;17.75;12.05;;;18.60;73.20;;;;;;5058173;28;20025;-74
2021/06/11 01:45:06;;;;;;;17.45;12.43;;;18.50;73.90;;;;;;5063174;28;20150;-73
2021/06/11 01:47:34;;;;;;;18.35;13.38;;;18.50;74.00;;;;;;5061546;28;20027;-74
2021/06/11 01:50:00;;;;;;;17.98;13.23;;;18.50;74.60;;;;;;5056728;28;20064;-74
2021/06/11 01:52:27;;;;;;;17.73;14.20;;;18.50;74.40;;;;;;5060907;28;20039;-74
2021/06/11 01:54:53;;;;;;;19.05;13.02;;;18.40;74.90;;;;;;5056663;28;20024;-74
2021/06/11 01:57:20;;;;;;;17.10;13.00;;;18.50;75.00;;;;;;5060207;28;20029;-73
2021/06/11 01:59:46;;;;;;;15.13;11.90;;;18.50;75.20;;;;;;5056277;28;20029;-74
2021/06/11 02:02:12;;;;;;;18.98;14.07;;;18.40;75.00;;;;;;5056366;28;20037;-74
2021/06/11 02:04:39;;;;;;;16.33;12.45;;;18.40;75.40;;;;;;5056287;28;20021;-74
2021/06/11 02:07:09;;;;;;;16.67;12.13;;;18.40;75.10;;;;;;5060246;28;20086;-73
2021/06/11 02:09:36;;;;;;;14.80;11.57;;;18.40;75.10;;;;;;5060364;28;20074;-74
2021/06/11 02:12:03;;;;;;;15.38;11.27;;;18.40;75.40;;;;;;5063868;28;20034;-74
2021/06/11 02:14:29;;;;;;;16.17;12.20;;;18.40;75.40;;;;;;5056052;28;20025;-74
2021/06/11 02:16:57;;;;;;;16.45;11.95;;;18.30;75.20;;;;;;5058800;28;20103;-74
2021/06/11 02:19:23;;;;;;;15.95;12.57;;;18.30;75.60;;;;;;5059476;28;20497;-74
2021/06/11 02:21:49;;;;;;;15.60;12.25;;;18.30;75.80;;;;;;5056081;28;20036;-74
2021/06/11 02:24:14;;;;;;;16.58;11.55;;;18.30;75.60;;;;;;5056658;28;20033;-73
2021/06/11 02:26:41;;;;;;;15.43;11.65;;;18.30;75.70;;;;;;5059911;28;20491;-74
2021/06/11 02:29:08;;;;;;;15.48;11.60;;;18.20;76.10;;;;;;5058802;28;20063;-74
2021/06/11 02:31:34;;;;;;;17.48;11.73;;;18.20;76.40;;;;;;5059987;28;20025;-74
2021/06/11 02:34:00;;;;;;;15.57;12.20;;;18.20;76.70;;;;;;5056782;28;20021;-74
2021/06/11 02:36:26;;;;;;;15.82;12.07;;;18.20;76.70;;;;;;5063877;28;20025;-74
2021/06/11 02:38:52;;;;;;;19.98;11.55;;;18.20;76.70;;;;;;5063431;28;20032;-74
2021/06/11 02:41:23;;;;;;;14.23;10.45;;;18.20;76.80;;;;;;5065691;28;20029;-74
2021/06/11 02:43:50;;;;;;;;;;;18.10;76.70;;;;;;5059847;28;20028;-73
2021/06/11 02:46:20;;;;;;;13.65;9.68;;;18.10;76.60;;;;;;5059722;28;19935;-74
2021/06/11 02:48:51;;;;;;;14.48;10.50;;;18.10;76.60;;;;;;5059557;28;20032;-73
2021/06/11 02:51:26;;;;;;;14.77;10.82;;;18.10;76.60;;;;;;5050837;28;20086;-73
2021/06/11 02:53:53;;;;;;;13.35;10.57;;;18.10;77.00;;;;;;5055634;28;20187;-74
2021/06/11 02:56:27;;;;;;;12.82;10.13;;;18.10;77.50;;;;;;5050485;28;20017;-73
2021/06/11 02:59:07;;;;;;;13.00;9.80;;;18.00;77.20;;;;;;5059738;28;20020;-74
2021/06/11 03:01:39;;;;;;;12.65;10.07;;;18.00;77.00;;;;;;5059680;28;20033;-74
2021/06/11 03:04:09;;;;;;;15.10;9.77;;;18.00;77.20;;;;;;5059620;28;20028;-73
2021/06/11 03:06:36;;;;;;;10.60;8.68;;;18.00;77.40;;;;;;5052568;28;20021;-74
2021/06/11 03:09:08;;;;;;;12.85;10.05;;;18.00;77.20;;;;;;5055710;28;20126;-74
2021/06/11 03:11:38;;;;;;;16.13;11.00;;;18.00;77.30;;;;;;5033793;28;20021;-74
2021/06/11 03:14:06;;;;;;;13.10;9.73;;;18.00;77.40;;;;;;5061202;28;20029;-73
2021/06/11 03:16:33;;;;;;;14.40;10.52;;;18.00;77.60;;;;;;5053735;28;20023;-72
2021/06/11 03:19:03;;;;;;;14.85;11.30;;;18.00;77.60;;;;;;5055163;28;20028;-72
2021/06/11 03:21:36;;;;;;;13.07;10.27;;;18.00;77.80;;;;;;5059376;28;20104;-72
2021/06/11 03:24:09;;;;;;;18.10;13.90;;;18.00;77.90;;;;;;5051177;28;20704;-72
2021/06/11 03:26:59;;;;;;;15.88;11.50;;;18.00;78.70;;;;;;5056874;28;20089;-72
2021/06/11 03:29:31;;;;;;;16.67;13.30;;;18.00;78.20;;;;;;5054575;28;20119;-73
2021/06/11 03:32:01;;;;;;;19.73;13.60;;;18.00;79.00;;;;;;5052467;28;20061;-73
2021/06/11 03:34:32;;;;;;;20.17;14.00;;;17.90;79.30;;;;;;5066553;28;20029;-73
2021/06/11 03:37:02;;;;;;;19.50;14.07;;;18.00;79.30;;;;;;5061980;28;20033;-72
2021/06/11 03:39:32;;;;;;;16.80;12.73;;;18.00;79.50;;;;;;5048535;28;20034;-72
2021/06/11 03:41:59;;;;;;;16.42;12.90;;;18.00;79.20;;;;;;5052074;28;20037;-72
2021/06/11 03:44:27;;;;;;;17.58;12.93;;;18.00;79.40;;;;;;5049274;28;20576;-74
2021/06/11 03:46:54;;;;;;;17.30;14.05;;;18.00;79.40;;;;;;5059237;28;20040;-72
2021/06/11 03:49:22;;;;;;;18.45;14.18;;;18.00;79.70;;;;;;5061044;28;20028;-74
2021/06/11 03:51:50;;;;;;;20.17;13.82;;;18.00;79.70;;;;;;5055275;28;20025;-74
2021/06/11 03:54:19;;;;;;;20.67;14.93;;;18.00;79.90;;;;;;5057202;28;20471;-74
2021/06/11 03:56:48;;;;;;;19.55;14.60;;;18.00;80.10;;;;;;5054542;28;20033;-74
2021/06/11 03:59:15;;;;;;;16.75;13.35;;;18.00;80.60;;;;;;5056090;28;20393;-73
2021/06/11 04:01:45;;;;;;;16.25;12.48;;;18.00;80.40;;;;;;5056077;28;20455;-73
2021/06/11 04:04:11;;;;;;;18.77;14.48;;;18.00;80.20;;;;;;5050847;28;20033;-73
2021/06/11 04:06:41;;;;;;;25.02;17.65;;;18.00;80.10;;;;;;5046179;28;20036;-73
2021/06/11 04:09:11;;;;;;;21.50;15.40;;;18.00;81.20;;;;;;5042570;28;20033;-73
2021/06/11 04:11:43;;;;;;;26.20;18.58;;;18.00;80.70;;;;;;5053644;28;20052;-73
2021/06/11 04:14:15;;;;;;;25.33;18.65;;;18.00;80.80;;;;;;5058050;28;20459;-73
2021/06/11 04:16:45;;;;;;;30.80;23.52;;;18.00;81.00;;;;;;5062835;28;20108;-73
2021/06/11 04:19:26;;;;;;;28.15;20.77;;;18.00;82.10;;;;;;5052096;28;20074;-73
2021/06/11 04:21:54;;;;;;;25.55;19.52;;;18.00;81.50;;;;;;5058882;28;20032;-73
2021/06/11 04:24:30;;;;;;;26.15;19.65;;;18.00;81.50;;;;;;5043788;28;20047;-73
2021/06/11 04:26:57;;;;;;;29.27;21.38;;;18.00;81.20;;;;;;5042889;28;20021;-73
2021/06/11 04:29:24;;;;;;;30.38;22.05;;;18.10;81.50;;;;;;5053586;28;20078;-73
2021/06/11 04:31:54;;;;;;;30.52;22.77;;;18.10;81.70;;;;;;5056353;28;20513;-73
2021/06/11 04:34:20;;;;;;;30.05;22.52;;;18.10;81.60;;;;;;5060763;28;20043;-73
2021/06/11 04:36:47;;;;;;;28.85;21.60;;;18.20;82.00;;;;;;5057405;28;20106;-73
2021/06/11 04:39:13;;;;;;;26.67;20.98;;;18.20;81.70;;;;;;5063367;28;20118;-74
2021/06/11 04:41:39;;;;;;;27.45;21.17;;;18.20;81.60;;;;;;5056162;28;20067;-73
2021/06/11 04:44:06;;;;;;;36.78;24.90;;;18.30;81.60;;;;;;5046016;28;20493;-73
2021/06/11 04:46:33;;;;;;;31.65;23.13;;;18.30;82.10;;;;;;5051763;28;20017;-72
2021/06/11 04:48:59;;;;;;;30.58;22.13;;;18.30;82.00;;;;;;5044939;28;20084;-73
2021/06/11 04:51:25;;;;;;;30.58;21.95;;;18.40;82.10;;;;;;5065186;28;20457;-71
2021/06/11 04:53:51;;;;;;;30.88;23.27;;;18.40;82.10;;;;;;5051102;28;20043;-72
2021/06/11 04:56:18;;;;;;;32.90;23.92;;;18.40;81.90;;;;;;5054852;28;20095;-72
2021/06/11 04:58:44;;;;;;;31.25;24.08;;;18.40;82.20;;;;;;5065743;28;20479;-72
2021/06/11 05:01:11;;;;;;;29.95;21.83;;;18.50;82.30;;;;;;5057158;28;20036;-73
2021/06/11 05:03:37;;;;;;;28.73;22.45;;;18.50;82.30;;;;;;5051433;28;20021;-71
2021/06/11 05:06:04;;;;;;;28.67;21.80;;;18.60;82.60;;;;;;5057947;28;20047;-72
2021/06/11 05:08:31;;;;;;;30.55;22.30;;;18.60;81.70;;;;;;5051970;28;20032;-72
2021/06/11 05:10:57;;;;;;;36.03;25.77;;;18.70;81.70;;;;;;5050402;28;20028;-73
2021/06/11 05:13:23;;;;;;;33.28;24.38;;;18.70;81.90;;;;;;5060406;28;20048;-74
2021/06/11 05:15:50;;;;;;;29.55;21.30;;;18.70;81.90;;;;;;5043661;28;20037;-70
2021/06/11 05:18:15;;;;;;;35.75;25.08;;;18.70;81.90;;;;;;5063376;28;20040;-71
2021/06/11 05:20:42;;;;;;;29.58;22.73;;;18.80;82.20;;;;;;5057729;28;20035;-69
2021/06/11 05:23:08;;;;;;;28.48;21.40;;;18.80;82.00;;;;;;5056613;28;20032;-69
2021/06/11 05:25:35;;;;;;;31.48;20.65;;;18.80;81.80;;;;;;5057041;28;20032;-70
2021/06/11 05:28:01;;;;;;;31.30;23.02;;;18.90;82.20;;;;;;5059095;28;20032;-69
2021/06/11 05:30:27;;;;;;;28.05;21.02;;;18.80;82.50;;;;;;5056419;28;20021;-70
2021/06/11 05:32:54;;;;;;;29.33;20.85;;;18.90;81.70;;;;;;5046305;28;20648;-74
2021/06/11 05:35:21;;;;;;;21.90;16.25;;;18.90;81.60;;;;;;5049622;28;20474;-73
2021/06/11 05:37:48;;;;;;;27.80;18.98;;;18.90;81.10;;;;;;5057131;28;20103;-73
2021/06/11 05:40:15;;;;;;;24.45;18.33;;;19.00;80.20;;;;;;5057436;28;20021;-73
2021/06/11 05:42:41;;;;;;;22.13;16.33;;;19.00;80.40;;;;;;5047262;28;20029;-73
2021/06/11 05:45:08;;;;;;;18.52;14.35;;;19.00;79.40;;;;;;5053420;28;20033;-76
2021/06/11 05:47:41;;;;;;;18.92;13.93;;;19.00;79.20;;;;;;5050554;28;20033;-76
2021/06/11 05:50:09;;;;;;;14.60;10.73;;;19.10;77.90;;;;;;5072067;28;20086;-76
2021/06/11 05:52:35;;;;;;;12.27;10.10;;;19.10;77.60;;;;;;5047876;28;20033;-77
2021/06/11 05:55:03;;;;;;;12.70;10.35;;;19.10;77.10;;;;;;5057981;28;20060;-76
2021/06/11 05:57:29;;;;;;;17.45;12.05;;;19.20;77.10;;;;;;5045943;28;20021;-77
2021/06/11 05:59:55;;;;;;;10.90;8.80;;;19.20;76.80;;;;;;5067974;28;20423;-76
2021/06/11 06:02:22;;;;;;;12.82;10.15;;;19.30;76.80;;;;;;5064041;28;20036;-76
2021/06/11 06:04:48;;;;;;;14.00;10.45;;;19.30;76.20;;;;;;5049499;28;20526;-77
2021/06/11 06:07:14;;;;;;;12.07;8.25;;;19.40;75.90;;;;;;5049078;28;20032;-75
2021/06/11 06:09:40;;;;;;;10.38;8.18;;;19.40;75.50;;;;;;5051060;28;20029;-77
2021/06/11 06:12:06;;;;;;;13.00;9.77;;;19.50;75.30;;;;;;5041587;28;20517;-76
2021/06/11 06:14:33;;;;;;;9.80;7.05;;;19.50;75.20;;;;;;5049447;28;20041;-72
2021/06/11 06:16:58;;;;;;;11.93;8.10;;;19.60;75.20;;;;;;5054260;28;20024;-71
2021/06/11 06:19:24;;;;;;;10.07;7.32;;;19.60;75.20;;;;;;5049196;28;20178;-70
2021/06/11 06:21:51;;;;;;;9.80;7.50;;;19.70;75.00;;;;;;5053788;28;20077;-74
2021/06/11 06:24:17;;;;;;;9.40;7.13;;;19.70;75.00;;;;;;5053967;28;20025;-74
2021/06/11 06:26:43;;;;;;;9.90;7.03;;;19.70;75.00;;;;;;5057308;28;20032;-74
2021/06/11 06:29:09;;;;;;;13.80;9.95;;;19.80;74.70;;;;;;5052626;28;20025;-74
2021/06/11 06:31:35;;;;;;;10.68;8.20;;;19.80;72.90;;;;;;5053245;28;20049;-73
2021/06/11 06:34:01;;;;;;;9.95;7.00;;;19.80;72.00;;;;;;5058780;28;20025;-74
2021/06/11 06:36:26;;;;;;;10.35;7.25;;;19.90;72.20;;;;;;5039593;28;20025;-74
2021/06/11 06:38:54;;;;;;;8.43;5.68;;;19.90;71.80;;;;;;5048472;28;20034;-74
2021/06/11 06:41:20;;;;;;;10.35;6.70;;;19.90;71.90;;;;;;5060423;28;20487;-74
2021/06/11 06:43:47;;;;;;;8.23;6.15;;;20.00;71.80;;;;;;5052792;28;20048;-74
2021/06/11 06:46:15;;;;;;;11.85;7.68;;;20.00;71.90;;;;;;5046070;28;20021;-73
2021/06/11 06:48:41;;;;;;;13.15;8.77;;;20.10;72.00;;;;;;5062001;28;20055;-74
2021/06/11 06:51:09;;;;;;;14.73;9.52;;;20.10;72.10;;;;;;5064594;28;20443;-74
2021/06/11 06:53:34;;;;;;;9.57;7.45;;;20.10;72.10;;;;;;5050850;28;20029;-73
2021/06/11 06:56:00;;;;;;;18.27;9.50;;;20.20;72.20;;;;;;5058276;28;20108;-74
2021/06/11 06:58:26;;;;;;;11.88;8.70;;;20.20;72.00;;;;;;5035422;28;20036;-74
2021/06/11 07:00:52;;;;;;;9.27;7.25;;;20.30;72.00;;;;;;5052105;28;20490;-73
2021/06/11 07:03:17;;;;;;;10.15;7.05;;;20.30;72.10;;;;;;5058048;28;20749;-74
2021/06/11 07:05:44;;;;;;;10.80;7.78;;;20.30;72.00;;;;;;5059473;28;20265;-74
2021/06/11 07:08:10;;;;;;;8.32;6.65;;;20.40;71.90;;;;;;5061416;28;20031;-74
2021/06/11 07:10:36;;;;;;;9.82;7.68;;;20.40;71.80;;;;;;5056143;28;20509;-74
2021/06/11 07:13:02;;;;;;;11.00;7.32;;;20.50;71.60;;;;;;5061005;28;20111;-73
2021/06/11 07:15:28;;;;;;;11.75;7.15;;;20.50;71.30;;;;;;5046774;28;20029;-74
2021/06/11 07:17:56;;;;;;;7.45;5.40;;;20.50;71.10;;;;;;5059975;28;20053;-74
2021/06/11 07:20:22;;;;;;;6.57;5.22;;;20.60;71.10;;;;;;5056974;28;20068;-73
2021/06/11 07:22:48;;;;;;;6.20;5.13;;;20.60;70.60;;;;;;5053961;28;20024;-74
2021/06/11 07:25:14;;;;;;;7.38;5.00;;;20.70;69.40;;;;;;5054885;28;20029;-73
2021/06/11 07:27:40;;;;;;;4.88;3.72;;;20.70;68.70;;;;;;5055074;28;20036;-73
2021/06/11 07:30:09;;;;;;;6.10;4.15;;;20.70;68.60;;;;;;5053143;28;20039;-73
2021/06/11 07:32:35;;;;;;;5.47;3.58;;;20.80;68.40;;;;;;5056522;28;20111;-74
2021/06/11 07:35:01;;;;;;;7.57;5.00;;;20.90;68.50;;;;;;5074606;28;20033;-73
2021/06/11 07:37:27;;;;;;;5.70;4.03;;;20.90;67.70;;;;;;5054244;28;20020;-74
2021/06/11 07:39:53;;;;;;;4.30;3.30;;;21.00;67.30;;;;;;5054142;28;20017;-73
2021/06/11 07:42:19;;;;;;;4.47;3.42;;;21.00;67.70;;;;;;5057407;28;20029;-74
2021/06/11 07:44:45;;;;;;;4.30;3.67;;;21.10;68.00;;;;;;5052321;28;20033;-73
2021/06/11 07:47:11;;;;;;;7.95;5.88;;;21.10;67.90;;;;;;5060126;28;20032;-73
2021/06/11 07:49:38;;;;;;;6.70;4.10;;;21.20;67.80;;;;;;5035762;28;20108;-73
2021/06/11 07:52:05;;;;;;;4.30;3.50;;;21.20;67.60;;;;;;5054169;28;20031;-73
2021/06/11 07:54:32;;;;;;;13.55;9.43;;;21.20;67.70;;;;;;5064379;28;20072;-73
2021/06/11 07:56:57;;;;;;;8.00;5.25;;;21.30;67.30;;;;;;5058020;28;20739;-74
2021/06/11 07:59:24;;;;;;;4.65;3.88;;;21.30;67.80;;;;;;5058310;28;20028;-74
2021/06/11 08:01:50;;;;;;;7.47;5.43;;;21.40;68.00;;;;;;5055685;28;20024;-74
2021/06/11 08:04:16;;;;;;;6.90;4.80;;;21.40;67.00;;;;;;5064487;28;20025;-74
2021/06/11 08:06:43;;;;;;;8.30;4.95;;;21.40;67.30;;;;;;5055265;28;20032;-75
2021/06/11 08:09:08;;;;;;;8.85;5.70;;;21.40;67.70;;;;;;5049452;28;20029;-74
2021/06/11 08:11:35;;;;;;;6.50;5.20;;;21.60;67.90;;;;;;5067579;28;20032;-74
2021/06/11 08:14:01;;;;;;;9.05;4.45;;;21.60;68.10;;;;;;5054052;28;20101;-74
2021/06/11 08:16:26;;;;;;;5.53;4.18;;;21.70;68.30;;;;;;5045666;28;20118;-74
2021/06/11 08:18:52;;;;;;;4.95;4.07;;;21.80;68.30;;;;;;5063288;28;20516;-74
2021/06/11 08:21:20;;;;;;;3.95;3.10;;;21.80;67.80;;;;;;5055473;28;20086;-74
2021/06/11 08:23:45;;;;;;;4.53;3.15;;;21.80;67.60;;;;;;5056638;28;20078;-75
2021/06/11 08:26:12;;;;;;;4.72;3.47;;;21.90;67.90;;;;;;5048604;28;20024;-74
2021/06/11 08:28:38;;;;;;;3.63;3.33;;;21.90;67.60;;;;;;5053609;28;20107;-74
2021/06/11 08:31:04;;;;;;;4.90;3.50;;;21.90;67.30;;;;;;5058907;28;20056;-73
2021/06/11 08:33:30;;;;;;;5.65;4.80;;;22.00;66.80;;;;;;5041978;28;20048;-75
2021/06/11 08:35:56;;;;;;;5.80;3.83;;;22.10;66.20;;;;;;5054738;28;20033;-75
2021/06/11 08:38:21;;;;;;;9.48;3.97;;;22.10;66.70;;;;;;5054156;28;20048;-74
2021/06/11 08:40:48;;;;;;;7.15;4.60;;;22.10;65.60;;;;;;5061298;28;20166;-75
2021/06/11 08:43:20;;;;;;;4.43;2.97;;;22.10;65.00;;;;;;5059361;28;20033;-74
2021/06/11 08:45:48;;;;;;;6.30;3.67;;;22.20;65.60;;;;;;5052136;28;20052;-75
2021/06/11 08:48:14;;;;;;;6.93;3.90;;;22.20;65.70;;;;;;5061509;28;20040;-74
2021/06/11 08:50:43;;;;;;;7.95;4.25;;;22.20;66.00;;;;;;5056596;28;20025;-74
2021/06/11 08:53:09;;;;;;;6.07;3.33;;;22.20;66.20;;;;;;5058865;28;20032;-74
2021/06/11 08:55:36;;;;;;;5.32;2.97;;;22.30;66.20;;;;;;5063149;28;20016;-74
2021/06/11 08:58:03;;;;;;;5.60;3.78;;;22.30;66.30;;;;;;5067904;28;20033;-74
2021/06/11 09:00:32;;;;;;;5.60;3.45;;;22.40;66.40;;;;;;5067021;28;20047;-76
2021/06/11 09:03:08;;;;;;;5.75;3.08;;;22.40;66.30;;;;;;5068403;28;20036;-74
2021/06/11 09:05:35;;;;;;;7.28;3.80;;;22.50;66.40;;;;;;5055881;28;20028;-74
2021/06/11 09:08:15;;;;;;;4.72;2.70;;;22.50;66.10;;;;;;5064999;28;20609;-73
2021/06/11 09:10:42;;;;;;;6.60;3.13;;;22.50;66.00;;;;;;5062956;28;20483;-74
2021/06/11 09:13:08;;;;;;;16.60;3.70;;;22.50;66.10;;;;;;5063125;28;20032;-73
2021/06/11 09:15:34;;;;;;;5.75;3.40;;;22.60;66.20;;;;;;5063618;28;20072;-74
2021/06/11 09:18:00;;;;;;;7.65;4.65;;;22.60;65.80;;;;;;5066471;28;20025;-74
2021/06/11 09:20:40;;;;;;;5.55;3.67;;;22.70;65.10;;;;;;5056985;28;20039;-73
2021/06/11 09:23:11;;;;;;;5.28;3.67;;;22.70;65.50;;;;;;5059011;28;20123;-74
2021/06/11 09:25:45;;;;;;;5.78;3.75;;;22.80;65.60;;;;;;5057313;28;20032;-74
2021/06/11 09:28:15;;;;;;;4.45;3.13;;;22.80;65.10;;;;;;5059526;28;20104;-75
2021/06/11 09:30:40;;;;;;;3.75;3.08;;;22.80;65.50;;;;;;5055231;28;20040;-75
2021/06/11 09:33:11;;;;;;;5.13;3.67;;;22.80;65.70;;;;;;5059918;28;20025;-75
2021/06/11 09:35:40;;;;;;;6.82;4.85;;;22.80;65.40;;;;;;5055479;28;20040;-75
2021/06/11 09:38:29;;;;;;;7.40;5.18;;;22.80;64.90;;;;;;5057376;28;20028;-75
2021/06/11 09:40:57;;;;;;;4.90;3.65;;;22.90;64.40;;;;;;5055516;28;20044;-74
2021/06/11 09:43:24;;;;;;;6.65;3.47;;;22.90;64.60;;;;;;5057275;28;20040;-75
2021/06/11 09:46:13;;;;;;;6.07;3.92;;;22.90;64.60;;;;;;5054894;28;20172;-74
2021/06/11 09:48:56;;;;;;;5.05;3.63;;;23.00;64.40;;;;;;5058016;28;20032;-75
2021/06/11 09:51:24;;;;;;;4.65;3.80;;;23.10;64.20;;;;;;5059634;28;20040;-75
2021/06/11 09:53:50;;;;;;;6.45;4.40;;;23.10;64.30;;;;;;5057510;28;20403;-74
2021/06/11 09:56:23;;;;;;;3.95;3.42;;;23.10;63.80;;;;;;5057606;28;20434;-74
2021/06/11 09:58:50;;;;;;;7.90;4.50;;;23.10;63.80;;;;;;5058254;28;20091;-75
2021/06/11 10:01:16;;;;;;;6.38;3.35;;;23.30;63.40;;;;;;5054470;28;20060;-74
2021/06/11 10:03:48;;;;;;;5.25;3.25;;;23.30;63.70;;;;;;5055098;28;20051;-75
2021/06/11 10:06:18;;;;;;;7.22;4.00;;;23.30;64.00;;;;;;5058164;28;20047;-75
2021/06/11 10:08:46;;;;;;;5.15;3.58;;;23.40;63.50;;;;;;5056515;28;20032;-75
2021/06/11 10:11:14;;;;;;;5.75;3.58;;;23.50;63.70;;;;;;5058682;28;20040;-75
2021/06/11 10:13:40;;;;;;;3.35;2.78;;;23.50;63.30;;;;;;5058626;28;20036;-75
2021/06/11 10:16:08;;;;;;;5.85;3.08;;;23.50;63.10;;;;;;5059942;28;20047;-75
2021/06/11 10:18:34;;;;;;;5.32;3.53;;;23.60;63.50;;;;;;5055342;28;20036;-75
2021/06/11 10:21:01;;;;;;;5.90;4.20;;;23.70;63.00;;;;;;5053848;28;20050;-76
2021/06/11 10:23:30;;;;;;;7.43;4.40;;;23.80;62.20;;;;;;5055359;28;20025;-76
2021/06/11 10:25:58;;;;;;;5.13;4.13;;;23.80;61.40;;;;;;5057394;28;20029;-76
2021/06/11 10:28:47;;;;;;;4.97;3.75;;;23.70;61.80;;;;;;5049953;28;20087;-76
2021/06/11 10:31:15;;;;;;;7.45;3.95;;;23.70;62.50;;;;;;5053344;28;20029;-76
2021/06/11 10:33:44;;;;;;;6.20;4.60;;;23.80;61.90;;;;;;5052687;28;20024;-75
2021/06/11 10:36:25;;;;;;;7.53;5.20;;;23.80;62.10;;;;;;5055136;28;20483;-76
2021/06/11 10:38:53;;;;;;;5.47;3.63;;;23.70;62.10;;;;;;5056201;28;20017;-75
2021/06/11 10:41:19;;;;;;;8.63;5.20;;;23.80;62.70;;;;;;5054358;28;20154;-74
2021/06/11 10:43:44;;;;;;;8.10;4.28;;;23.80;61.90;;;;;;5052479;28;20028;-75
2021/06/11 10:46:30;;;;;;;7.60;4.03;;;23.90;62.10;;;;;;5054847;28;20334;-76
2021/06/11 10:48:56;;;;;;;6.22;4.13;;;24.00;62.00;;;;;;5052139;28;20037;-75
2021/06/11 10:51:45;;;;;;;4.38;3.42;;;24.00;61.60;;;;;;5054369;28;20086;-75
2021/06/11 10:54:19;;;;;;;5.82;4.20;;;24.20;62.10;;;;;;5049648;28;20055;-75
2021/06/11 10:56:58;;;;;;;10.32;3.88;;;24.20;61.20;;;;;;5051945;28;20187;-74
2021/06/11 10:59:39;;;;;;;6.05;3.60;;;24.20;61.40;;;;;;5051388;28;20094;-75
2021/06/11 11:02:07;;;;;;;7.18;5.18;;;24.40;61.80;;;;;;5051807;28;20029;-75
2021/06/11 11:04:37;;;;;;;7.13;3.50;;;24.30;61.00;;;;;;5056865;28;20115;-75
2021/06/11 11:07:31;;;;;;;5.82;4.07;;;24.40;61.70;;;;;;5055146;28;20026;-75
2021/06/11 11:10:05;;;;;;;4.18;2.90;;;24.40;61.60;;;;;;5056007;28;20040;-75
2021/06/11 11:13:00;;;;;;;6.43;3.25;;;24.50;60.70;;;;;;5054532;28;20033;-75
2021/06/11 11:15:33;;;;;;;4.30;3.13;;;24.60;61.20;;;;;;5051074;28;20098;-76
2021/06/11 11:17:59;;;;;;;4.45;3.72;;;24.70;61.60;;;;;;5058554;28;20031;-75
2021/06/11 11:20:34;;;;;;;6.15;3.70;;;24.70;61.80;;;;;;5053512;28;20033;-73
2021/06/11 11:23:02;;;;;;;5.63;3.08;;;24.70;61.60;;;;;;5047637;28;20195;-71
2021/06/11 11:25:29;;;;;;;3.38;2.83;;;24.70;61.60;;;;;;5055491;28;20032;-73
2021/06/11 11:27:56;;;;;;;6.07;3.22;;;24.80;60.50;;;;;;5054584;28;20028;-72
2021/06/11 11:30:26;;;;;;;6.72;4.15;;;24.90;60.00;;;;;;5034323;28;20056;-70
2021/06/11 11:32:52;;;;;;;6.90;3.38;;;25.10;59.70;;;;;;5055550;28;20638;-70
2021/06/11 11:35:19;;;;;;;4.20;3.72;;;25.20;60.10;;;;;;5052979;28;20539;-71
2021/06/11 11:37:48;;;;;;;4.20;3.80;;;25.30;58.40;;;;;;5054252;28;20074;-72
2021/06/11 11:40:15;;;;;;;4.53;3.03;;;25.30;57.90;;;;;;5054154;28;20029;-71
2021/06/11 11:42:41;;;;;;;5.50;2.50;;;25.30;59.10;;;;;;5052844;28;20094;-70
2021/06/11 11:45:07;;;;;;;4.40;2.40;;;25.50;60.20;;;;;;5053108;28;20407;-70
2021/06/11 11:47:32;;;;;;;5.00;3.00;;;25.80;58.10;;;;;;5057778;28;20021;-70
2021/06/11 11:49:58;;;;;;;5.45;3.42;;;26.10;56.90;;;;;;5053751;28;20056;-70
2021/06/11 11:52:24;;;;;;;4.28;2.50;;;26.70;54.60;;;;;;5056448;28;20028;-70
2021/06/11 11:54:50;;;;;;;4.88;2.80;;;27.90;53.30;;;;;;5052641;28;20074;-70
2021/06/11 11:57:15;;;;;;;3.90;3.47;;;29.10;51.00;;;;;;5054008;28;20112;-70
2021/06/11 11:59:41;;;;;;;6.05;5.55;;;29.40;48.30;;;;;;5056301;28;20048;-71
2021/06/11 12:02:08;;;;;;;8.68;6.25;;;29.50;48.00;;;;;;5049356;28;20032;-73
2021/06/11 12:04:34;;;;;;;5.60;4.20;;;29.70;46.30;;;;;;5050738;28;20039;-73
2021/06/11 12:07:00;;;;;;;11.82;5.60;;;29.40;46.40;;;;;;5055238;28;20466;-72
2021/06/11 12:09:29;;;;;;;4.18;2.40;;;28.70;46.10;;;;;;5054936;28;20108;-73
2021/06/11 12:11:54;;;;;;;5.07;3.03;;;28.60;47.40;;;;;;5055072;28;20108;-72
2021/06/11 12:14:20;;;;;;;10.32;6.85;;;28.70;46.80;;;;;;5053363;28;20039;-72
2021/06/11 12:16:46;;;;;;;4.40;2.55;;;29.10;48.60;;;;;;5052680;28;20045;-73
2021/06/11 12:19:11;;;;;;;4.80;2.72;;;29.90;46.00;;;;;;5052114;28;20032;-73
2021/06/11 12:21:37;;;;;;;2.53;2.30;;;30.30;46.60;;;;;;5053740;28;20112;-73
2021/06/11 12:24:05;;;;;;;3.33;2.40;;;30.60;45.80;;;;;;5050406;28;20056;-74
2021/06/11 12:26:31;;;;;;;2.50;2.10;;;30.90;46.10;;;;;;5058351;28;20083;-74
2021/06/11 12:28:59;;;;;;;3.17;2.33;;;31.20;45.80;;;;;;5058391;28;20116;-74
2021/06/11 12:31:25;;;;;;;3.67;2.20;;;31.50;44.80;;;;;;5060283;28;20039;-75
2021/06/11 12:33:51;;;;;;;3.60;2.33;;;31.50;42.90;;;;;;5060422;28;20126;-75
2021/06/11 12:36:16;;;;;;;4.22;2.38;;;31.70;43.20;;;;;;5057818;28;20041;-74
2021/06/11 12:38:42;;;;;;;3.05;2.47;;;32.20;42.30;;;;;;5060959;28;20390;-76
2021/06/11 12:41:10;;;;;;;3.05;2.40;;;33.00;39.80;;;;;;5062949;28;20029;-75
2021/06/11 12:46:24;;;;;;;3.25;2.20;;;33.30;41.80;;;;;;5057514;28;20036;-77